Athena, Oregon
Current Conditions -  °F | °C
As of 4:53 AM on Sunday 21 Dec 2014 (Local Time) from KPDT Reporting Station
Broken Clouds Broken Clouds  
Wind Chill: 53°   Ceiling: 10000
Heat Index: 53°   Visibility: 10mi
Dew Point: 43°   Wind: 26mph
Humidity: 69%   Direction: 260°W
Pressure: 29.75"   Gusts: 36mph
Location:  45.81°N, 118.49°W
Report Text: KPDT 211253Z AUTO 26023G31KT 10SM BKN100 12/06 A2975 RMK AO2 PK WND 26033/1240 SLP069 T01170061
Loading
Personal Weather Stations






























Interactive Weather Map New forecast layout! Learn more

10-Day Weather Forecast

Advertisements
Track Severe Weather on mobile